sensor_id;sensor_type;location;lat;lon;timestamp;P1;durP1;ratioP1;P2;durP2;ratioP2
52067;SDS011;60237;52.338;21.228;2023-05-10T00:01:10;110.55;;;13.98;;
52067;SDS011;60237;52.338;21.228;2023-05-10T00:03:37;104.95;;;12.38;;
52067;SDS011;60237;52.338;21.228;2023-05-10T00:06:04;74.65;;;10.68;;
52067;SDS011;60237;52.338;21.228;2023-05-10T00:08:30;52.00;;;8.60;;
52067;SDS011;60237;52.338;21.228;2023-05-10T00:10:57;80.25;;;11.45;;
52067;SDS011;60237;52.338;21.228;2023-05-10T00:13:24;106.00;;;13.43;;
52067;SDS011;60237;52.338;21.228;2023-05-10T00:15:51;67.93;;;10.38;;
52067;SDS011;60237;52.338;21.228;2023-05-10T00:18:17;74.53;;;10.85;;
52067;SDS011;60237;52.338;21.228;2023-05-10T00:20:44;128.38;;;13.38;;
52067;SDS011;60237;52.338;21.228;2023-05-10T00:23:12;87.32;;;11.38;;
52067;SDS011;60237;52.338;21.228;2023-05-10T00:25:38;60.03;;;9.45;;
52067;SDS011;60237;52.338;21.228;2023-05-10T00:28:05;95.53;;;12.15;;
52067;SDS011;60237;52.338;21.228;2023-05-10T00:30:31;103.93;;;12.05;;
52067;SDS011;60237;52.338;21.228;2023-05-10T00:32:58;79.90;;;10.65;;
52067;SDS011;60237;52.338;21.228;2023-05-10T00:35:25;128.82;;;14.05;;
52067;SDS011;60237;52.338;21.228;2023-05-10T00:37:52;81.25;;;10.63;;
52067;SDS011;60237;52.338;21.228;2023-05-10T00:40:19;93.88;;;12.50;;
52067;SDS011;60237;52.338;21.228;2023-05-10T00:42:51;116.68;;;13.98;;
52067;SDS011;60237;52.338;21.228;2023-05-10T00:45:18;97.70;;;11.77;;
52067;SDS011;60237;52.338;21.228;2023-05-10T00:47:45;80.03;;;10.73;;
52067;SDS011;60237;52.338;21.228;2023-05-10T00:50:12;116.20;;;12.52;;
52067;SDS011;60237;52.338;21.228;2023-05-10T00:52:39;91.47;;;11.13;;
52067;SDS011;60237;52.338;21.228;2023-05-10T00:55:06;76.25;;;10.45;;
52067;SDS011;60237;52.338;21.228;2023-05-10T00:57:33;117.28;;;13.18;;
52067;SDS011;60237;52.338;21.228;2023-05-10T00:59:59;68.65;;;9.38;;
52067;SDS011;60237;52.338;21.228;2023-05-10T01:02:26;123.15;;;13.85;;
52067;SDS011;60237;52.338;21.228;2023-05-10T01:04:55;110.85;;;12.65;;
52067;SDS011;60237;52.338;21.228;2023-05-10T01:07:22;74.68;;;10.02;;
52067;SDS011;60237;52.338;21.228;2023-05-10T01:09:49;96.82;;;11.60;;
52067;SDS011;60237;52.338;21.228;2023-05-10T01:12:16;111.07;;;12.52;;
52067;SDS011;60237;52.338;21.228;2023-05-10T01:14:42;97.60;;;11.32;;
52067;SDS011;60237;52.338;21.228;2023-05-10T01:17:09;89.03;;;10.45;;
52067;SDS011;60237;52.338;21.228;2023-05-10T01:19:37;100.45;;;11.73;;
52067;SDS011;60237;52.338;21.228;2023-05-10T01:22:18;62.75;;;9.20;;
52067;SDS011;60237;52.338;21.228;2023-05-10T01:25:23;112.25;;;12.52;;
52067;SDS011;60237;52.338;21.228;2023-05-10T01:37:41;68.80;;;10.13;;
52067;SDS011;60237;52.338;21.228;2023-05-10T01:43:14;69.95;;;10.85;;
52067;SDS011;60237;52.338;21.228;2023-05-10T01:45:50;103.28;;;11.95;;
52067;SDS011;60237;52.338;21.228;2023-05-10T01:48:18;79.82;;;10.55;;
52067;SDS011;60237;52.338;21.228;2023-05-10T01:50:46;133.50;;;14.00;;
52067;SDS011;60237;52.338;21.228;2023-05-10T01:53:14;105.18;;;12.70;;
52067;SDS011;60237;52.338;21.228;2023-05-10T01:55:50;57.83;;;8.30;;
52067;SDS011;60237;52.338;21.228;2023-05-10T01:58:20;104.28;;;11.30;;
52067;SDS011;60237;52.338;21.228;2023-05-10T02:03:33;123.50;;;12.73;;
52067;SDS011;60237;52.338;21.228;2023-05-10T02:06:02;54.63;;;7.97;;
52067;SDS011;60237;52.338;21.228;2023-05-10T02:08:29;49.25;;;7.15;;
52067;SDS011;60237;52.338;21.228;2023-05-10T02:10:56;104.45;;;11.45;;
52067;SDS011;60237;52.338;21.228;2023-05-10T02:13:24;66.32;;;8.15;;
52067;SDS011;60237;52.338;21.228;2023-05-10T02:15:52;77.78;;;9.50;;
52067;SDS011;60237;52.338;21.228;2023-05-10T02:18:19;113.07;;;12.23;;
52067;SDS011;60237;52.338;21.228;2023-05-10T02:20:46;65.80;;;9.18;;
52067;SDS011;60237;52.338;21.228;2023-05-10T02:23:14;69.97;;;9.13;;
52067;SDS011;60237;52.338;21.228;2023-05-10T02:25:43;139.73;;;14.75;;
52067;SDS011;60237;52.338;21.228;2023-05-10T02:28:10;53.85;;;7.95;;
52067;SDS011;60237;52.338;21.228;2023-05-10T02:30:37;75.15;;;9.60;;
52067;SDS011;60237;52.338;21.228;2023-05-10T02:33:04;111.72;;;11.85;;
52067;SDS011;60237;52.338;21.228;2023-05-10T02:35:32;50.47;;;7.13;;
52067;SDS011;60237;52.338;21.228;2023-05-10T02:38:00;49.70;;;7.45;;
52067;SDS011;60237;52.338;21.228;2023-05-10T02:40:29;113.82;;;11.25;;
52067;SDS011;60237;52.338;21.228;2023-05-10T02:42:56;85.15;;;8.98;;
52067;SDS011;60237;52.338;21.228;2023-05-10T02:45:24;65.20;;;7.70;;
52067;SDS011;60237;52.338;21.228;2023-05-10T02:47:52;126.00;;;12.88;;
52067;SDS011;60237;52.338;21.228;2023-05-10T02:50:19;130.77;;;14.88;;
52067;SDS011;60237;52.338;21.228;2023-05-10T02:52:47;62.63;;;8.00;;
52067;SDS011;60237;52.338;21.228;2023-05-10T02:55:14;138.23;;;14.65;;
52067;SDS011;60237;52.338;21.228;2023-05-10T02:57:46;112.03;;;12.52;;
52067;SDS011;60237;52.338;21.228;2023-05-10T03:00:14;134.70;;;12.45;;
52067;SDS011;60237;52.338;21.228;2023-05-10T03:02:41;164.57;;;16.20;;
52067;SDS011;60237;52.338;21.228;2023-05-10T03:05:08;57.80;;;10.43;;
52067;SDS011;60237;52.338;21.228;2023-05-10T03:07:34;89.82;;;10.65;;
52067;SDS011;60237;52.338;21.228;2023-05-10T03:10:01;145.88;;;14.50;;
52067;SDS011;60237;52.338;21.228;2023-05-10T03:12:41;79.55;;;9.50;;
52067;SDS011;60237;52.338;21.228;2023-05-10T03:15:25;97.78;;;11.27;;
52067;SDS011;60237;52.338;21.228;2023-05-10T03:17:56;49.22;;;7.22;;
52067;SDS011;60237;52.338;21.228;2023-05-10T03:20:25;117.95;;;11.68;;
52067;SDS011;60237;52.338;21.228;2023-05-10T03:22:55;96.18;;;10.65;;
52067;SDS011;60237;52.338;21.228;2023-05-10T03:25:23;90.47;;;9.23;;
52067;SDS011;60237;52.338;21.228;2023-05-10T03:27:51;92.53;;;10.75;;
52067;SDS011;60237;52.338;21.228;2023-05-10T03:30:18;66.85;;;8.68;;
52067;SDS011;60237;52.338;21.228;2023-05-10T03:32:45;64.05;;;8.57;;
52067;SDS011;60237;52.338;21.228;2023-05-10T03:35:15;171.82;;;17.33;;
52067;SDS011;60237;52.338;21.228;2023-05-10T03:37:42;100.32;;;10.30;;
52067;SDS011;60237;52.338;21.228;2023-05-10T03:40:10;59.50;;;8.48;;
52067;SDS011;60237;52.338;21.228;2023-05-10T03:42:39;186.40;;;17.45;;
52067;SDS011;60237;52.338;21.228;2023-05-10T03:45:06;49.22;;;6.47;;
52067;SDS011;60237;52.338;21.228;2023-05-10T03:47:33;103.25;;;10.93;;
52067;SDS011;60237;52.338;21.228;2023-05-10T03:49:59;91.35;;;10.27;;
52067;SDS011;60237;52.338;21.228;2023-05-10T03:52:26;70.78;;;11.68;;
52067;SDS011;60237;52.338;21.228;2023-05-10T03:54:53;64.07;;;7.50;;
52067;SDS011;60237;52.338;21.228;2023-05-10T03:57:20;129.20;;;12.45;;
52067;SDS011;60237;52.338;21.228;2023-05-10T03:59:46;108.20;;;10.63;;
52067;SDS011;60237;52.338;21.228;2023-05-10T04:02:13;60.15;;;7.30;;
52067;SDS011;60237;52.338;21.228;2023-05-10T04:04:39;87.30;;;9.65;;
52067;SDS011;60237;52.338;21.228;2023-05-10T04:07:06;135.35;;;13.50;;
52067;SDS011;60237;52.338;21.228;2023-05-10T04:09:33;85.85;;;9.82;;
52067;SDS011;60237;52.338;21.228;2023-05-10T04:11:59;84.75;;;8.75;;
52067;SDS011;60237;52.338;21.228;2023-05-10T04:14:28;67.93;;;7.68;;
52067;SDS011;60237;52.338;21.228;2023-05-10T04:16:55;63.60;;;8.20;;
52067;SDS011;60237;52.338;21.228;2023-05-10T04:19:22;110.43;;;11.23;;
52067;SDS011;60237;52.338;21.228;2023-05-10T04:21:48;123.93;;;11.98;;
52067;SDS011;60237;52.338;21.228;2023-05-10T04:24:15;216.18;;;16.30;;
52067;SDS011;60237;52.338;21.228;2023-05-10T04:26:41;89.25;;;9.65;;
52067;SDS011;60237;52.338;21.228;2023-05-10T04:29:08;134.68;;;12.60;;
52067;SDS011;60237;52.338;21.228;2023-05-10T04:31:34;63.25;;;7.22;;
52067;SDS011;60237;52.338;21.228;2023-05-10T04:34:02;70.53;;;9.48;;
52067;SDS011;60237;52.338;21.228;2023-05-10T04:36:29;174.45;;;16.95;;
52067;SDS011;60237;52.338;21.228;2023-05-10T04:38:55;75.50;;;8.45;;
52067;SDS011;60237;52.338;21.228;2023-05-10T04:41:22;99.85;;;10.88;;
52067;SDS011;60237;52.338;21.228;2023-05-10T04:43:49;82.80;;;10.32;;
52067;SDS011;60237;52.338;21.228;2023-05-10T04:46:16;46.83;;;8.68;;
52067;SDS011;60237;52.338;21.228;2023-05-10T04:48:42;123.47;;;14.95;;
52067;SDS011;60237;52.338;21.228;2023-05-10T04:51:09;55.28;;;8.02;;
52067;SDS011;60237;52.338;21.228;2023-05-10T04:53:35;57.38;;;8.55;;
52067;SDS011;60237;52.338;21.228;2023-05-10T04:56:02;49.35;;;7.35;;
52067;SDS011;60237;52.338;21.228;2023-05-10T04:58:29;81.00;;;10.00;;
52067;SDS011;60237;52.338;21.228;2023-05-10T05:00:55;107.25;;;34.88;;
52067;SDS011;60237;52.338;21.228;2023-05-10T05:03:22;89.80;;;43.25;;
52067;SDS011;60237;52.338;21.228;2023-05-10T05:05:48;73.22;;;25.35;;
52067;SDS011;60237;52.338;21.228;2023-05-10T05:08:15;118.10;;;30.05;;
52067;SDS011;60237;52.338;21.228;2023-05-10T05:10:41;89.35;;;27.52;;
52067;SDS011;60237;52.338;21.228;2023-05-10T05:13:08;82.10;;;21.10;;
52067;SDS011;60237;52.338;21.228;2023-05-10T05:15:35;172.88;;;28.30;;
52067;SDS011;60237;52.338;21.228;2023-05-10T05:18:01;67.90;;;26.00;;
52067;SDS011;60237;52.338;21.228;2023-05-10T05:20:28;104.82;;;25.17;;
52067;SDS011;60237;52.338;21.228;2023-05-10T05:22:54;135.85;;;29.17;;
52067;SDS011;60237;52.338;21.228;2023-05-10T05:25:21;78.00;;;27.73;;
52067;SDS011;60237;52.338;21.228;2023-05-10T05:27:47;121.18;;;35.92;;
52067;SDS011;60237;52.338;21.228;2023-05-10T05:30:14;110.05;;;30.10;;
52067;SDS011;60237;52.338;21.228;2023-05-10T05:32:41;72.22;;;26.17;;
52067;SDS011;60237;52.338;21.228;2023-05-10T05:35:07;94.18;;;24.88;;
52067;SDS011;60237;52.338;21.228;2023-05-10T05:37:34;126.45;;;25.63;;
52067;SDS011;60237;52.338;21.228;2023-05-10T05:40:01;51.60;;;18.70;;
52067;SDS011;60237;52.338;21.228;2023-05-10T05:42:28;72.22;;;16.48;;
52067;SDS011;60237;52.338;21.228;2023-05-10T05:44:54;99.28;;;18.63;;
52067;SDS011;60237;52.338;21.228;2023-05-10T05:47:21;84.43;;;15.95;;
52067;SDS011;60237;52.338;21.228;2023-05-10T05:49:47;122.38;;;22.25;;
52067;SDS011;60237;52.338;21.228;2023-05-10T05:52:14;99.82;;;20.13;;
52067;SDS011;60237;52.338;21.228;2023-05-10T05:54:40;148.20;;;24.58;;
52067;SDS011;60237;52.338;21.228;2023-05-10T05:57:07;61.88;;;16.20;;
52067;SDS011;60237;52.338;21.228;2023-05-10T05:59:33;141.95;;;23.77;;
52067;SDS011;60237;52.338;21.228;2023-05-10T06:02:00;116.95;;;22.40;;
52067;SDS011;60237;52.338;21.228;2023-05-10T06:04:27;458.30;;;38.10;;
52067;SDS011;60237;52.338;21.228;2023-05-10T06:06:53;69.95;;;16.13;;
52067;SDS011;60237;52.338;21.228;2023-05-10T06:09:20;138.90;;;19.67;;
52067;SDS011;60237;52.338;21.228;2023-05-10T06:11:47;60.70;;;11.85;;
52067;SDS011;60237;52.338;21.228;2023-05-10T06:14:13;81.10;;;10.45;;
52067;SDS011;60237;52.338;21.228;2023-05-10T06:16:40;233.82;;;20.58;;
52067;SDS011;60237;52.338;21.228;2023-05-10T06:19:06;64.53;;;8.95;;
52067;SDS011;60237;52.338;21.228;2023-05-10T06:21:33;106.60;;;13.02;;
52067;SDS011;60237;52.338;21.228;2023-05-10T06:24:00;96.55;;;11.88;;
52067;SDS011;60237;52.338;21.228;2023-05-10T06:26:26;63.35;;;9.88;;
52067;SDS011;60237;52.338;21.228;2023-05-10T06:28:53;136.55;;;12.88;;
52067;SDS011;60237;52.338;21.228;2023-05-10T06:31:19;88.15;;;11.15;;
52067;SDS011;60237;52.338;21.228;2023-05-10T06:33:46;107.28;;;13.40;;
52067;SDS011;60237;52.338;21.228;2023-05-10T06:36:13;81.95;;;10.05;;
52067;SDS011;60237;52.338;21.228;2023-05-10T06:38:39;257.92;;;20.77;;
52067;SDS011;60237;52.338;21.228;2023-05-10T06:41:06;98.45;;;9.85;;
52067;SDS011;60237;52.338;21.228;2023-05-10T06:43:33;39.15;;;5.88;;
52067;SDS011;60237;52.338;21.228;2023-05-10T06:45:59;61.67;;;6.00;;
52067;SDS011;60237;52.338;21.228;2023-05-10T06:48:26;42.00;;;5.10;;
52067;SDS011;60237;52.338;21.228;2023-05-10T06:50:53;39.10;;;4.90;;
52067;SDS011;60237;52.338;21.228;2023-05-10T06:53:20;48.63;;;5.28;;
52067;SDS011;60237;52.338;21.228;2023-05-10T06:55:46;82.78;;;8.30;;
52067;SDS011;60237;52.338;21.228;2023-05-10T06:58:13;41.97;;;4.70;;
52067;SDS011;60237;52.338;21.228;2023-05-10T07:00:39;65.43;;;6.97;;
52067;SDS011;60237;52.338;21.228;2023-05-10T07:03:09;30.85;;;4.10;;
52067;SDS011;60237;52.338;21.228;2023-05-10T07:05:36;32.97;;;5.35;;
52067;SDS011;60237;52.338;21.228;2023-05-10T07:08:03;25.67;;;4.30;;
52067;SDS011;60237;52.338;21.228;2023-05-10T07:10:30;281.70;;;17.05;;
52067;SDS011;60237;52.338;21.228;2023-05-10T07:12:56;41.58;;;5.03;;
52067;SDS011;60237;52.338;21.228;2023-05-10T07:15:23;34.88;;;5.35;;
52067;SDS011;60237;52.338;21.228;2023-05-10T07:17:49;31.25;;;4.13;;
52067;SDS011;60237;52.338;21.228;2023-05-10T07:20:18;45.33;;;5.13;;
52067;SDS011;60237;52.338;21.228;2023-05-10T07:22:45;33.70;;;4.25;;
52067;SDS011;60237;52.338;21.228;2023-05-10T07:25:11;67.75;;;6.85;;
52067;SDS011;60237;52.338;21.228;2023-05-10T07:27:38;47.08;;;5.68;;
52067;SDS011;60237;52.338;21.228;2023-05-10T07:30:04;49.78;;;4.65;;
52067;SDS011;60237;52.338;21.228;2023-05-10T07:32:31;27.65;;;3.53;;
52067;SDS011;60237;52.338;21.228;2023-05-10T07:34:58;32.22;;;4.07;;
52067;SDS011;60237;52.338;21.228;2023-05-10T07:37:25;33.05;;;4.38;;
52067;SDS011;60237;52.338;21.228;2023-05-10T07:39:51;39.92;;;4.80;;
52067;SDS011;60237;52.338;21.228;2023-05-10T07:42:18;70.07;;;7.00;;
52067;SDS011;60237;52.338;21.228;2023-05-10T07:44:44;40.65;;;4.07;;
52067;SDS011;60237;52.338;21.228;2023-05-10T07:47:11;32.45;;;4.25;;
52067;SDS011;60237;52.338;21.228;2023-05-10T07:49:38;43.63;;;4.78;;
52067;SDS011;60237;52.338;21.228;2023-05-10T07:52:04;47.40;;;4.95;;
52067;SDS011;60237;52.338;21.228;2023-05-10T07:54:31;54.55;;;6.85;;
52067;SDS011;60237;52.338;21.228;2023-05-10T07:56:58;284.45;;;21.15;;
52067;SDS011;60237;52.338;21.228;2023-05-10T07:59:26;67.53;;;6.80;;
52067;SDS011;60237;52.338;21.228;2023-05-10T08:01:52;39.47;;;4.95;;
52067;SDS011;60237;52.338;21.228;2023-05-10T08:04:19;42.25;;;5.05;;
52067;SDS011;60237;52.338;21.228;2023-05-10T08:06:46;87.22;;;8.43;;
52067;SDS011;60237;52.338;21.228;2023-05-10T08:09:12;36.00;;;4.50;;
52067;SDS011;60237;52.338;21.228;2023-05-10T08:11:39;42.03;;;4.50;;
52067;SDS011;60237;52.338;21.228;2023-05-10T08:14:06;69.53;;;7.47;;
52067;SDS011;60237;52.338;21.228;2023-05-10T08:16:32;36.33;;;4.55;;
52067;SDS011;60237;52.338;21.228;2023-05-10T08:18:59;76.97;;;7.35;;
52067;SDS011;60237;52.338;21.228;2023-05-10T08:21:26;42.65;;;5.00;;
52067;SDS011;60237;52.338;21.228;2023-05-10T08:23:52;32.67;;;4.00;;
52067;SDS011;60237;52.338;21.228;2023-05-10T08:26:19;74.93;;;7.57;;
52067;SDS011;60237;52.338;21.228;2023-05-10T08:28:47;36.85;;;4.55;;
52067;SDS011;60237;52.338;21.228;2023-05-10T08:31:14;25.33;;;6.35;;
52067;SDS011;60237;52.338;21.228;2023-05-10T08:33:41;30.60;;;3.47;;
52067;SDS011;60237;52.338;21.228;2023-05-10T08:36:09;24.95;;;3.58;;
52067;SDS011;60237;52.338;21.228;2023-05-10T08:38:37;28.45;;;3.75;;
52067;SDS011;60237;52.338;21.228;2023-05-10T08:41:04;20.23;;;3.03;;
52067;SDS011;60237;52.338;21.228;2023-05-10T08:43:31;35.92;;;4.25;;
52067;SDS011;60237;52.338;21.228;2023-05-10T08:46:01;53.85;;;5.00;;
52067;SDS011;60237;52.338;21.228;2023-05-10T08:48:31;40.55;;;4.57;;
52067;SDS011;60237;52.338;21.228;2023-05-10T08:50:59;44.25;;;4.93;;
52067;SDS011;60237;52.338;21.228;2023-05-10T08:53:27;41.55;;;4.35;;
52067;SDS011;60237;52.338;21.228;2023-05-10T08:55:55;68.70;;;6.30;;
52067;SDS011;60237;52.338;21.228;2023-05-10T08:58:21;78.82;;;6.15;;
52067;SDS011;60237;52.338;21.228;2023-05-10T09:00:48;54.22;;;5.68;;
52067;SDS011;60237;52.338;21.228;2023-05-10T09:03:17;49.38;;;4.65;;
52067;SDS011;60237;52.338;21.228;2023-05-10T09:05:44;37.47;;;4.03;;
52067;SDS011;60237;52.338;21.228;2023-05-10T09:08:11;37.10;;;4.15;;
52067;SDS011;60237;52.338;21.228;2023-05-10T09:10:38;73.22;;;5.85;;
52067;SDS011;60237;52.338;21.228;2023-05-10T09:13:05;33.70;;;3.75;;
52067;SDS011;60237;52.338;21.228;2023-05-10T09:15:33;51.55;;;5.63;;
52067;SDS011;60237;52.338;21.228;2023-05-10T09:18:00;34.17;;;3.88;;
52067;SDS011;60237;52.338;21.228;2023-05-10T09:20:28;34.22;;;3.95;;
52067;SDS011;60237;52.338;21.228;2023-05-10T09:22:55;32.15;;;4.25;;
52067;SDS011;60237;52.338;21.228;2023-05-10T09:25:21;42.35;;;5.15;;
52067;SDS011;60237;52.338;21.228;2023-05-10T09:27:49;36.65;;;3.75;;
52067;SDS011;60237;52.338;21.228;2023-05-10T09:30:26;48.72;;;5.10;;
52067;SDS011;60237;52.338;21.228;2023-05-10T09:32:53;39.90;;;4.53;;
52067;SDS011;60237;52.338;21.228;2023-05-10T09:35:21;38.97;;;4.38;;
52067;SDS011;60237;52.338;21.228;2023-05-10T09:37:49;29.42;;;3.85;;
52067;SDS011;60237;52.338;21.228;2023-05-10T09:40:25;31.60;;;3.45;;
52067;SDS011;60237;52.338;21.228;2023-05-10T09:43:00;41.33;;;4.43;;
52067;SDS011;60237;52.338;21.228;2023-05-10T09:45:27;81.80;;;6.90;;
52067;SDS011;60237;52.338;21.228;2023-05-10T09:47:54;29.73;;;3.70;;
52067;SDS011;60237;52.338;21.228;2023-05-10T09:50:21;44.20;;;4.68;;
52067;SDS011;60237;52.338;21.228;2023-05-10T09:52:52;53.17;;;4.97;;
52067;SDS011;60237;52.338;21.228;2023-05-10T09:55:19;57.75;;;6.18;;
52067;SDS011;60237;52.338;21.228;2023-05-10T09:57:47;68.05;;;6.47;;
52067;SDS011;60237;52.338;21.228;2023-05-10T10:00:17;44.92;;;4.45;;
52067;SDS011;60237;52.338;21.228;2023-05-10T10:02:53;44.97;;;4.32;;
52067;SDS011;60237;52.338;21.228;2023-05-10T10:05:20;33.13;;;4.03;;
52067;SDS011;60237;52.338;21.228;2023-05-10T10:07:47;105.22;;;6.80;;
52067;SDS011;60237;52.338;21.228;2023-05-10T10:10:15;36.72;;;3.65;;
52067;SDS011;60237;52.338;21.228;2023-05-10T10:12:42;71.80;;;6.38;;
52067;SDS011;60237;52.338;21.228;2023-05-10T10:15:09;33.35;;;3.90;;
52067;SDS011;60237;52.338;21.228;2023-05-10T10:17:36;27.95;;;3.38;;
52067;SDS011;60237;52.338;21.228;2023-05-10T10:20:04;46.10;;;6.10;;
52067;SDS011;60237;52.338;21.228;2023-05-10T10:22:34;37.05;;;4.22;;
52067;SDS011;60237;52.338;21.228;2023-05-10T10:25:01;59.95;;;5.15;;
52067;SDS011;60237;52.338;21.228;2023-05-10T10:27:34;105.03;;;8.90;;
52067;SDS011;60237;52.338;21.228;2023-05-10T10:30:05;12.07;;;2.60;;
52067;SDS011;60237;52.338;21.228;2023-05-10T10:32:42;32.72;;;4.07;;
52067;SDS011;60237;52.338;21.228;2023-05-10T10:35:14;42.90;;;4.65;;
52067;SDS011;60237;52.338;21.228;2023-05-10T10:37:45;37.50;;;3.83;;
52067;SDS011;60237;52.338;21.228;2023-05-10T10:40:25;40.17;;;4.10;;
52067;SDS011;60237;52.338;21.228;2023-05-10T10:42:52;60.67;;;5.82;;
52067;SDS011;60237;52.338;21.228;2023-05-10T10:45:20;38.40;;;4.03;;
52067;SDS011;60237;52.338;21.228;2023-05-10T10:47:47;109.75;;;8.45;;
52067;SDS011;60237;52.338;21.228;2023-05-10T10:50:14;81.43;;;7.20;;
52067;SDS011;60237;52.338;21.228;2023-05-10T10:52:43;158.95;;;12.32;;
52067;SDS011;60237;52.338;21.228;2023-05-10T10:55:13;81.35;;;7.65;;
52067;SDS011;60237;52.338;21.228;2023-05-10T11:02:54;58.92;;;6.07;;
52067;SDS011;60237;52.338;21.228;2023-05-10T11:07:55;76.83;;;6.67;;
52067;SDS011;60237;52.338;21.228;2023-05-10T11:10:22;65.22;;;5.95;;
52067;SDS011;60237;52.338;21.228;2023-05-10T11:12:53;108.68;;;9.55;;
52067;SDS011;60237;52.338;21.228;2023-05-10T11:15:20;99.22;;;9.30;;
52067;SDS011;60237;52.338;21.228;2023-05-10T11:17:54;26.80;;;3.83;;
52067;SDS011;60237;52.338;21.228;2023-05-10T11:20:22;57.13;;;5.60;;
52067;SDS011;60237;52.338;21.228;2023-05-10T11:22:51;105.78;;;7.50;;
52067;SDS011;60237;52.338;21.228;2023-05-10T11:25:18;62.75;;;5.90;;
52067;SDS011;60237;52.338;21.228;2023-05-10T11:27:45;63.80;;;6.03;;
52067;SDS011;60237;52.338;21.228;2023-05-10T11:30:13;40.03;;;4.40;;
52067;SDS011;60237;52.338;21.228;2023-05-10T11:32:41;40.83;;;4.45;;
52067;SDS011;60237;52.338;21.228;2023-05-10T11:35:08;32.45;;;3.63;;
52067;SDS011;60237;52.338;21.228;2023-05-10T11:37:35;25.40;;;3.38;;
52067;SDS011;60237;52.338;21.228;2023-05-10T11:40:02;34.97;;;3.92;;
52067;SDS011;60237;52.338;21.228;2023-05-10T11:42:29;65.18;;;5.43;;
52067;SDS011;60237;52.338;21.228;2023-05-10T11:44:56;31.95;;;3.53;;
52067;SDS011;60237;52.338;21.228;2023-05-10T11:47:23;43.25;;;4.45;;
52067;SDS011;60237;52.338;21.228;2023-05-10T11:49:52;20.52;;;3.22;;
52067;SDS011;60237;52.338;21.228;2023-05-10T11:52:18;26.75;;;4.20;;
52067;SDS011;60237;52.338;21.228;2023-05-10T11:54:52;62.63;;;5.93;;
52067;SDS011;60237;52.338;21.228;2023-05-10T11:57:19;35.10;;;4.57;;
52067;SDS011;60237;52.338;21.228;2023-05-10T11:59:47;43.78;;;4.88;;
52067;SDS011;60237;52.338;21.228;2023-05-10T12:02:13;51.78;;;5.28;;
52067;SDS011;60237;52.338;21.228;2023-05-10T12:04:40;64.82;;;4.95;;
52067;SDS011;60237;52.338;21.228;2023-05-10T12:07:07;50.20;;;4.55;;
52067;SDS011;60237;52.338;21.228;2023-05-10T12:09:34;57.88;;;4.35;;
52067;SDS011;60237;52.338;21.228;2023-05-10T12:12:09;55.78;;;5.40;;
52067;SDS011;60237;52.338;21.228;2023-05-10T12:14:36;52.85;;;5.22;;
52067;SDS011;60237;52.338;21.228;2023-05-10T12:17:03;29.92;;;3.45;;
52067;SDS011;60237;52.338;21.228;2023-05-10T12:19:36;33.47;;;3.88;;
52067;SDS011;60237;52.338;21.228;2023-05-10T12:22:04;38.80;;;4.35;;
52067;SDS011;60237;52.338;21.228;2023-05-10T12:24:33;169.10;;;13.10;;
52067;SDS011;60237;52.338;21.228;2023-05-10T12:27:04;50.88;;;4.60;;
52067;SDS011;60237;52.338;21.228;2023-05-10T12:29:48;44.70;;;5.30;;
52067;SDS011;60237;52.338;21.228;2023-05-10T12:32:14;33.00;;;3.67;;
52067;SDS011;60237;52.338;21.228;2023-05-10T12:34:41;41.25;;;4.18;;
52067;SDS011;60237;52.338;21.228;2023-05-10T12:37:09;165.77;;;11.50;;
52067;SDS011;60237;52.338;21.228;2023-05-10T12:39:47;81.63;;;7.75;;
52067;SDS011;60237;52.338;21.228;2023-05-10T12:42:14;60.55;;;5.45;;
52067;SDS011;60237;52.338;21.228;2023-05-10T12:44:40;52.80;;;5.53;;
52067;SDS011;60237;52.338;21.228;2023-05-10T12:47:07;114.60;;;9.60;;
52067;SDS011;60237;52.338;21.228;2023-05-10T12:49:33;32.90;;;3.92;;
52067;SDS011;60237;52.338;21.228;2023-05-10T12:52:00;38.88;;;3.83;;
52067;SDS011;60237;52.338;21.228;2023-05-10T12:54:27;106.63;;;7.50;;
52067;SDS011;60237;52.338;21.228;2023-05-10T12:56:54;30.08;;;3.78;;
52067;SDS011;60237;52.338;21.228;2023-05-10T12:59:20;50.00;;;4.72;;
52067;SDS011;60237;52.338;21.228;2023-05-10T13:01:47;46.63;;;5.85;;
52067;SDS011;60237;52.338;21.228;2023-05-10T13:04:14;31.35;;;4.10;;
52067;SDS011;60237;52.338;21.228;2023-05-10T13:06:40;58.08;;;5.15;;
52067;SDS011;60237;52.338;21.228;2023-05-10T13:09:07;32.75;;;3.72;;
52067;SDS011;60237;52.338;21.228;2023-05-10T13:11:34;30.17;;;3.35;;
52067;SDS011;60237;52.338;21.228;2023-05-10T13:14:00;32.28;;;3.83;;
52067;SDS011;60237;52.338;21.228;2023-05-10T13:16:29;678.67;;;47.58;;
52067;SDS011;60237;52.338;21.228;2023-05-10T13:18:56;60.67;;;5.57;;
52067;SDS011;60237;52.338;21.228;2023-05-10T13:21:25;39.80;;;4.65;;
52067;SDS011;60237;52.338;21.228;2023-05-10T13:23:53;44.75;;;5.32;;
52067;SDS011;60237;52.338;21.228;2023-05-10T13:26:19;40.65;;;5.05;;
52067;SDS011;60237;52.338;21.228;2023-05-10T13:28:46;60.53;;;5.90;;
52067;SDS011;60237;52.338;21.228;2023-05-10T13:31:13;82.50;;;7.18;;
52067;SDS011;60237;52.338;21.228;2023-05-10T13:33:40;57.58;;;5.60;;
52067;SDS011;60237;52.338;21.228;2023-05-10T13:36:06;68.38;;;6.50;;
52067;SDS011;60237;52.338;21.228;2023-05-10T13:38:33;70.93;;;5.28;;
52067;SDS011;60237;52.338;21.228;2023-05-10T13:40:59;56.60;;;4.93;;
52067;SDS011;60237;52.338;21.228;2023-05-10T13:43:26;55.53;;;5.60;;
52067;SDS011;60237;52.338;21.228;2023-05-10T13:45:52;151.80;;;11.48;;
52067;SDS011;60237;52.338;21.228;2023-05-10T13:48:19;56.78;;;4.78;;
52067;SDS011;60237;52.338;21.228;2023-05-10T13:50:45;56.20;;;5.60;;
52067;SDS011;60237;52.338;21.228;2023-05-10T13:53:12;39.40;;;3.97;;
52067;SDS011;60237;52.338;21.228;2023-05-10T13:55:39;40.25;;;4.90;;
52067;SDS011;60237;52.338;21.228;2023-05-10T13:58:06;32.10;;;3.85;;
52067;SDS011;60237;52.338;21.228;2023-05-10T14:00:32;49.47;;;4.50;;
52067;SDS011;60237;52.338;21.228;2023-05-10T14:02:59;67.22;;;5.90;;
52067;SDS011;60237;52.338;21.228;2023-05-10T14:05:26;52.13;;;4.65;;
52067;SDS011;60237;52.338;21.228;2023-05-10T14:07:54;84.20;;;5.95;;
52067;SDS011;60237;52.338;21.228;2023-05-10T14:10:20;143.85;;;9.73;;
52067;SDS011;60237;52.338;21.228;2023-05-10T14:12:47;69.15;;;6.53;;
52067;SDS011;60237;52.338;21.228;2023-05-10T14:15:14;46.80;;;4.70;;
52067;SDS011;60237;52.338;21.228;2023-05-10T14:17:40;42.50;;;4.10;;
52067;SDS011;60237;52.338;21.228;2023-05-10T14:20:07;67.15;;;5.30;;
52067;SDS011;60237;52.338;21.228;2023-05-10T14:22:34;37.97;;;3.90;;
52067;SDS011;60237;52.338;21.228;2023-05-10T14:25:01;49.15;;;4.82;;
52067;SDS011;60237;52.338;21.228;2023-05-10T14:27:28;36.75;;;4.03;;
52067;SDS011;60237;52.338;21.228;2023-05-10T14:29:54;42.30;;;4.55;;
52067;SDS011;60237;52.338;21.228;2023-05-10T14:32:21;58.75;;;5.68;;
52067;SDS011;60237;52.338;21.228;2023-05-10T14:34:47;56.92;;;5.50;;
52067;SDS011;60237;52.338;21.228;2023-05-10T14:37:14;182.25;;;35.63;;
52067;SDS011;60237;52.338;21.228;2023-05-10T14:39:41;69.03;;;6.68;;